Time;durP1;ratioP1;P1;durP2;ratioP2;P2;SDS_P1;SDS_P2;PMS_P1;PMS_P2;Temp;Humidity;BMP_temperature;BMP_pressure;BME280_temperature;BME280_humidity;BME280_pressure;Samples;Min_cycle;Max_cycle;Signal;HPM_P1;HPM_P2
2023/06/13 00:01:30;;;;;;;8.77;6.00;;;;;;;13.46;40.00;100728.13;5053017;28;20204;-54
2023/06/13 00:03:56;;;;;;;7.55;6.07;;;;;;;13.41;39.97;100735.69;5052774;28;20452;-56
2023/06/13 00:06:22;;;;;;;11.02;6.60;;;;;;;13.38;39.97;100729.69;5053924;28;20044;-56
2023/06/13 00:08:49;;;;;;;7.90;5.90;;;;;;;13.26;40.32;100729.69;5053099;28;20072;-57
2023/06/13 00:11:15;;;;;;;10.95;6.80;;;;;;;13.22;40.20;100741.63;5052787;28;20059;-58
2023/06/13 00:13:41;;;;;;;12.73;6.70;;;;;;;13.22;40.67;100744.31;5053558;28;20053;-57
2023/06/13 00:16:08;;;;;;;8.73;6.65;;;;;;;13.20;40.37;100725.63;5036065;28;20040;-56
2023/06/13 00:18:37;;;;;;;11.15;6.53;;;;;;;12.92;40.93;100697.31;5053489;28;20033;-60
2023/06/13 00:21:03;;;;;;;9.48;6.40;;;;;;;13.23;40.75;100731.72;5053300;28;20175;-57
2023/06/13 00:23:29;;;;;;;9.32;6.63;;;;;;;13.14;40.85;100722.53;5053859;28;20360;-56
2023/06/13 00:25:54;;;;;;;12.55;6.47;;;;;;;13.16;41.09;100731.34;5052848;28;20024;-54
2023/06/13 00:28:20;;;;;;;7.13;6.13;;;;;;;13.02;40.76;100703.72;5052717;28;20035;-56
2023/06/13 00:30:45;;;;;;;11.00;6.53;;;;;;;13.18;40.66;100734.78;5052953;28;20504;-55
2023/06/13 00:33:15;;;;;;;9.85;6.80;;;;;;;13.09;41.02;100730.13;5053448;28;20056;-57
2023/06/13 00:35:45;;;;;;;13.05;6.70;;;;;;;13.02;41.08;100727.91;5052005;28;20033;-54
2023/06/13 00:38:12;;;;;;;11.68;7.00;;;;;;;12.56;41.40;100665.06;5052776;28;20049;-56
2023/06/13 00:40:38;;;;;;;9.30;6.35;;;;;;;12.90;41.44;100736.88;5053593;28;20028;-58
2023/06/13 00:43:05;;;;;;;10.30;6.57;;;;;;;13.01;41.26;100728.00;5053340;28;20037;-60
2023/06/13 00:45:33;;;;;;;18.55;6.60;;;;;;;12.99;41.28;100733.47;5052850;28;20448;-58
2023/06/13 00:48:04;;;;;;;7.75;6.47;;;;;;;12.97;41.49;100722.00;5052866;28;20392;-56
2023/06/13 00:50:34;;;;;;;12.07;6.85;;;;;;;12.98;41.42;100733.63;5052582;28;20025;-62
2023/06/13 00:53:09;;;;;;;13.63;6.63;;;;;;;13.00;41.38;100732.50;5052511;28;20029;-59
2023/06/13 00:55:36;;;;;;;9.68;6.60;;;;;;;12.88;41.47;100722.72;5052732;28;20024;-57
2023/06/13 00:58:05;;;;;;;9.93;6.50;;;;;;;12.84;41.84;100730.13;5052840;28;20036;-56
2023/06/13 01:00:33;;;;;;;12.57;7.57;;;;;;;12.89;41.88;100732.50;5035322;28;20036;-53
2023/06/13 01:02:58;;;;;;;8.60;6.85;;;;;;;12.89;41.86;100732.50;5052023;28;20055;-61
2023/06/13 01:05:28;;;;;;;12.90;7.43;;;;;;;12.61;42.18;100695.13;5052144;28;20029;-59
2023/06/13 01:07:58;;;;;;;10.63;7.40;;;;;;;12.87;42.07;100727.22;5051768;28;20507;-59
2023/06/13 01:10:27;;;;;;;13.95;7.53;;;;;;;12.90;41.96;100732.38;5051771;28;20040;-61
2023/06/13 01:13:16;;;;;;;11.20;7.68;;;;;;;12.97;41.62;100731.91;5033160;28;20132;-56
2023/06/13 01:15:58;;;;;;;12.10;6.90;;;;;;;12.87;42.04;100729.91;5040171;28;20424;-59
2023/06/13 01:18:25;;;;;;;10.13;7.38;;;;;;;12.75;42.55;100726.31;5032350;28;20437;-58
2023/06/13 01:21:00;;;;;;;12.70;7.82;;;;;;;12.73;42.37;100727.41;5049545;28;20029;-57
2023/06/13 01:23:49;;;;;;;9.73;6.70;;;;;;;12.86;42.25;100730.03;5051555;28;20384;-60
2023/06/13 01:26:27;;;;;;;13.50;7.38;;;;;;;12.86;42.37;100732.72;5049588;28;20029;-57
2023/06/13 01:28:53;;;;;;;9.77;6.72;;;;;;;12.70;42.68;100720.44;5050900;28;20036;-54
2023/06/13 01:31:22;;;;;;;12.65;7.68;;;;;;;12.75;42.70;100733.53;5051409;28;20365;-54
2023/06/13 01:33:48;;;;;;;11.70;7.82;;;;;;;12.73;42.67;100722.03;5052377;28;20408;-56
2023/06/13 01:36:14;;;;;;;10.35;6.57;;;;;;;12.53;42.57;100691.28;5051888;28;20036;-57
2023/06/13 01:38:40;;;;;;;7.78;5.60;;;;;;;12.82;42.64;100723.19;5051547;28;20476;-54
2023/06/13 01:41:06;;;;;;;7.38;5.90;;;;;;;12.80;42.15;100698.25;5051850;28;20033;-63
2023/06/13 01:43:31;;;;;;;7.13;5.50;;;;;;;12.86;42.61;100724.66;5052028;28;20032;-57
2023/06/13 01:46:23;;;;;;;9.45;4.90;;;;;;;13.09;41.65;100732.81;5033730;28;20035;-56
2023/06/13 01:49:16;;;;;;;8.00;5.03;;;;;;;13.14;42.10;100727.91;5040560;28;20468;-59
2023/06/13 01:52:36;;;;;;;6.13;4.53;;;;;;;13.21;41.40;100718.41;5051209;28;20358;-59
2023/06/13 01:55:13;;;;;;;8.75;4.57;;;;;;;13.06;42.34;100726.69;4952192;29;20420;-53
2023/06/13 01:57:51;;;;;;;11.65;5.03;;;;;;;13.16;41.77;100723.28;5051836;28;20056;-57
2023/06/13 02:00:18;;;;;;;7.57;4.28;;;;;;;12.91;42.73;100717.09;5031987;28;20038;-57
2023/06/13 02:02:44;;;;;;;7.50;4.28;;;;;;;12.99;42.63;100735.34;5032160;28;20049;-56
2023/06/13 02:05:11;;;;;;;7.97;4.15;;;;;;;12.89;42.33;100708.31;5031717;28;20076;-65
2023/06/13 02:07:37;;;;;;;11.77;4.35;;;;;;;13.21;41.96;100729.16;5032271;28;20033;-54
2023/06/13 02:10:07;;;;;;;7.32;4.22;;;;;;;13.17;42.11;100735.75;5032822;28;20200;-59
2023/06/13 02:12:33;;;;;;;5.88;3.85;;;;;;;13.13;42.72;100732.44;5051594;28;20045;-56
2023/06/13 02:15:00;;;;;;;9.75;4.20;;;;;;;13.12;42.78;100729.88;5051704;28;20823;-58
2023/06/13 02:17:26;;;;;;;7.80;4.10;;;;;;;13.34;41.70;100726.38;5051853;28;20029;-54
2023/06/13 02:19:52;;;;;;;10.20;3.45;;;;;;;13.42;42.29;100739.22;5052339;28;20028;-61
2023/06/13 02:22:22;;;;;;;7.40;3.97;;;;;;;13.63;41.20;100732.19;5051746;28;20415;-58
2023/06/13 02:24:48;;;;;;;9.73;4.22;;;;;;;13.78;41.04;100729.25;5051906;28;20033;-55
2023/06/13 02:27:13;;;;;;;8.35;3.97;;;;;;;13.96;40.69;100731.44;5050092;28;20460;-58
2023/06/13 02:29:39;;;;;;;5.95;3.80;;;;;;;14.11;40.49;100721.28;5050745;28;20036;-53
2023/06/13 02:32:05;;;;;;;7.70;3.95;;;;;;;14.38;39.88;100717.31;5049624;28;20052;-57
2023/06/13 02:34:31;;;;;;;9.35;4.53;;;;;;;14.70;39.32;100722.69;5050029;28;20516;-57
2023/06/13 02:36:56;;;;;;;5.63;4.10;;;;;;;15.11;38.57;100730.13;5051498;28;20349;-52
2023/06/13 02:39:22;;;;;;;6.10;4.28;;;;;;;15.46;37.85;100721.69;5051731;28;20136;-57
2023/06/13 02:41:48;;;;;;;6.28;4.00;;;;;;;15.71;36.92;100727.63;5050966;28;20044;-57
2023/06/13 02:44:13;;;;;;;7.78;4.20;;;;;;;15.79;37.04;100725.13;5050884;28;20040;-55
2023/06/13 02:46:39;;;;;;;6.68;3.95;;;;;;;15.65;37.41;100702.03;5052160;28;20041;-57
2023/06/13 02:49:04;;;;;;;10.18;4.40;;;;;;;15.80;37.24;100725.97;5051350;28;20432;-56
2023/06/13 02:51:30;;;;;;;12.35;3.80;;;;;;;15.68;37.61;100729.78;5033226;28;20033;-58
2023/06/13 02:53:55;;;;;;;5.93;3.65;;;;;;;15.65;37.75;100729.03;5051044;28;20033;-58
2023/06/13 02:56:21;;;;;;;6.90;3.65;;;;;;;15.85;37.38;100726.41;5051154;28;20112;-57
2023/06/13 02:58:46;;;;;;;8.43;3.92;;;;;;;16.14;37.07;100728.38;5053283;28;20163;-58
2023/06/13 03:01:13;;;;;;;9.32;4.07;;;;;;;16.52;36.05;100727.75;5054724;28;20456;-66
2023/06/13 03:03:38;;;;;;;6.60;3.83;;;;;;;16.97;34.78;100724.47;5055221;28;20107;-59
2023/06/13 03:06:04;;;;;;;8.85;4.10;;;;;;;17.55;34.23;100725.38;5054912;28;20112;-55
2023/06/13 03:08:30;;;;;;;6.63;3.83;;;;;;;17.97;33.68;100732.22;5054913;28;20192;-57
2023/06/13 03:10:56;;;;;;;8.13;3.63;;;;;;;18.36;32.85;100731.19;5036133;28;20128;-58
2023/06/13 03:13:22;;;;;;;10.85;4.13;;;;;;;18.59;32.40;100728.03;5054611;28;20041;-57
2023/06/13 03:15:47;;;;;;;6.63;4.05;;;;;;;18.89;31.97;100725.91;5053997;28;20052;-61
2023/06/13 03:18:14;;;;;;;8.40;4.03;;;;;;;18.98;31.40;100719.56;5054834;28;20403;-62
2023/06/13 03:20:45;;;;;;;9.45;4.07;;;;;;;19.35;31.74;100742.06;5053949;28;20056;-56
2023/06/13 03:23:12;;;;;;;6.60;4.05;;;;;;;19.69;30.16;100744.00;5054881;28;20037;-61
2023/06/13 03:25:40;;;;;;;6.97;3.75;;;;;;;19.89;30.46;100739.16;5053941;28;20044;-59
2023/06/13 03:28:06;;;;;;;7.07;3.42;;;;;;;20.19;29.41;100739.66;5054487;28;20047;-60
2023/06/13 03:30:31;;;;;;;7.30;3.80;;;;;;;20.67;28.63;100733.63;5053495;28;20024;-61
2023/06/13 03:32:57;;;;;;;5.22;3.97;;;;;;;21.08;28.45;100744.59;5035923;28;20461;-59
2023/06/13 03:35:22;;;;;;;6.50;3.90;;;;;;;21.43;28.47;100743.50;5052609;28;20021;-62
2023/06/13 03:37:48;;;;;;;6.60;3.70;;;;;;;21.71;27.59;100733.09;5053528;28;20150;-63
2023/06/13 03:40:13;;;;;;;4.15;3.30;;;;;;;22.08;26.02;100733.47;5035319;28;20048;-60
2023/06/13 03:42:39;;;;;;;4.60;2.88;;;;;;;22.41;26.21;100733.28;5049459;28;20032;-58
2023/06/13 03:45:05;;;;;;;8.32;3.40;;;;;;;22.75;25.93;100729.34;5053451;28;20521;-58
2023/06/13 03:47:31;;;;;;;9.98;3.25;;;;;;;23.11;24.48;100724.28;5034094;28;20568;-56
2023/06/13 03:49:57;;;;;;;6.22;3.25;;;;;;;23.59;24.79;100727.56;5035687;28;20025;-58
2023/06/13 03:52:22;;;;;;;7.07;3.45;;;;;;;23.89;24.09;100719.38;5033374;28;20029;-60
2023/06/13 03:54:48;;;;;;;9.88;3.28;;;;;;;24.27;23.07;100732.09;5052773;28;20457;-60
2023/06/13 03:57:14;;;;;;;6.15;2.85;;;;;;;24.40;22.68;100736.88;5034946;28;20032;-54
2023/06/13 03:59:39;;;;;;;3.90;3.13;;;;;;;24.75;22.23;100733.47;5051235;28;20033;-61
2023/06/13 04:02:05;;;;;;;6.22;3.53;;;;;;;25.02;21.75;100712.63;5053026;28;20047;-60
2023/06/13 04:04:32;;;;;;;6.20;2.88;;;;;;;25.50;21.42;100744.00;5052578;28;20430;-60
2023/06/13 04:06:58;;;;;;;7.13;3.40;;;;;;;25.73;21.15;100735.53;5052036;28;20430;-57
2023/06/13 04:09:24;;;;;;;3.55;3.10;;;;;;;26.18;20.65;100726.88;5051327;28;20052;-58
2023/06/13 04:11:49;;;;;;;5.25;3.35;;;;;;;26.64;19.95;100746.44;5052003;28;20350;-57
2023/06/13 04:14:15;;;;;;;6.65;2.90;;;;;;;27.17;19.35;100733.84;5053724;28;20037;-56
2023/06/13 04:16:40;;;;;;;8.55;2.63;;;;;;;27.87;18.38;100744.31;5052500;28;20025;-56
2023/06/13 04:19:07;;;;;;;5.05;2.80;;;;;;;28.79;17.64;100740.53;5052421;28;20100;-57
2023/06/13 04:21:32;;;;;;;6.85;2.78;;;;;;;29.84;16.91;100741.94;5052745;28;20025;-60
2023/06/13 04:23:58;;;;;;;6.45;2.65;;;;;;;30.23;16.04;100734.25;5034919;28;20372;-58
2023/06/13 04:26:24;;;;;;;3.60;2.40;;;;;;;30.17;15.70;100747.09;5034613;28;20086;-56
2023/06/13 04:28:50;;;;;;;5.53;2.42;;;;;;;29.87;15.99;100733.19;5052100;28;20360;-53
2023/06/13 04:31:17;;;;;;;5.97;2.50;;;;;;;29.84;16.06;100740.00;5052873;28;20031;-58
2023/06/13 04:33:44;;;;;;;4.45;2.30;;;;;;;30.37;15.73;100734.91;5052455;28;20036;-57
2023/06/13 04:36:13;;;;;;;4.30;2.25;;;;;;;31.50;14.63;100738.88;5051599;28;20052;-57
2023/06/13 04:38:40;;;;;;;3.63;2.20;;;;;;;32.44;14.22;100744.50;5050121;28;20084;-57
2023/06/13 04:41:10;;;;;;;4.25;1.95;;;;;;;32.77;13.36;100710.44;5052485;28;20093;-58
2023/06/13 04:43:38;;;;;;;15.57;2.70;;;;;;;32.46;13.36;100737.59;5053003;28;20060;-59
2023/06/13 04:46:04;;;;;;;15.20;2.10;;;;;;;32.33;13.22;100722.13;5051717;28;20407;-59
2023/06/13 04:48:30;;;;;;;6.30;2.08;;;;;;;32.64;13.63;100725.47;5051974;28;20082;-59
2023/06/13 04:50:59;;;;;;;3.30;1.90;;;;;;;33.15;13.11;100734.94;5052239;28;20033;-60
2023/06/13 04:53:26;;;;;;;7.68;1.60;;;;;;;33.31;12.96;100722.97;5050979;28;20033;-58
2023/06/13 04:55:52;;;;;;;5.05;2.00;;;;;;;33.87;12.39;100724.88;5052142;28;20143;-60
2023/06/13 04:58:18;;;;;;;2.78;1.60;;;;;;;33.98;12.06;100719.47;5052265;28;20175;-58
2023/06/13 05:00:48;;;;;;;3.05;1.80;;;;;;;34.61;12.07;100724.63;5053058;28;20435;-58
2023/06/13 05:03:18;;;;;;;3.67;2.00;;;;;;;35.24;11.22;100728.78;5053054;28;20033;-57
2023/06/13 05:05:44;;;;;;;2.70;1.60;;;;;;;35.68;11.02;100727.66;5051863;28;20044;-58
2023/06/13 05:08:14;;;;;;;4.47;1.67;;;;;;;35.61;11.13;100727.91;5051787;28;20790;-58
2023/06/13 05:10:43;;;;;;;6.97;1.70;;;;;;;34.83;11.31;100734.81;5051443;28;20106;-57
2023/06/13 05:13:09;;;;;;;4.22;1.70;;;;;;;34.36;11.92;100714.91;5051063;28;20090;-59
2023/06/13 05:15:36;;;;;;;3.97;1.73;;;;;;;34.81;11.53;100720.34;5051569;28;20044;-60
2023/06/13 05:18:06;;;;;;;4.13;1.80;;;;;;;34.85;10.93;100727.06;5052472;28;20471;-61
2023/06/13 05:20:32;;;;;;;2.40;1.70;;;;;;;35.00;11.28;100738.34;5051265;28;20346;-59
2023/06/13 05:23:00;;;;;;;2.72;1.70;;;;;;;34.57;11.45;100712.34;5051433;28;20037;-58
2023/06/13 05:25:26;;;;;;;5.43;1.60;;;;;;;35.00;11.30;100704.97;5051983;28;20025;-61
2023/06/13 05:27:51;;;;;;;3.63;1.83;;;;;;;35.58;10.52;100722.91;5050852;28;20086;-61
2023/06/13 05:30:17;;;;;;;5.85;1.33;;;;;;;35.67;10.73;100693.41;5052604;28;20037;-60
2023/06/13 05:32:43;;;;;;;2.50;1.75;;;;;;;36.23;10.30;100703.09;5051036;28;20029;-59
2023/06/13 05:35:09;;;;;;;2.78;1.55;;;;;;;36.45;10.20;100697.28;5051693;28;20024;-60
2023/06/13 05:37:37;;;;;;;3.55;1.58;;;;;;;37.00;9.76;100695.88;5035178;28;20032;-61
2023/06/13 05:40:08;;;;;;;2.85;1.70;;;;;;;36.63;9.81;100669.97;5051720;28;20032;-60
2023/06/13 05:42:36;;;;;;;6.05;1.50;;;;;;;36.52;9.84;100666.34;5051871;28;20040;-59
2023/06/13 05:45:06;;;;;;;4.20;1.40;;;;;;;37.88;9.41;100715.25;5051566;28;20094;-59
2023/06/13 05:47:33;;;;;;;2.90;1.50;;;;;;;38.09;9.11;100704.81;5051376;28;20041;-56
2023/06/13 05:50:00;;;;;;;4.22;1.63;;;;;;;37.28;9.13;100672.13;5033610;28;20115;-57
2023/06/13 05:52:26;;;;;;;1.70;1.25;;;;;;;36.60;9.60;100699.28;5051861;28;20041;-58
2023/06/13 05:54:52;;;;;;;6.45;1.65;;;;;;;36.67;9.80;100696.22;5034233;28;20116;-64
2023/06/13 05:57:18;;;;;;;3.47;1.40;;;;;;;36.68;9.48;100683.09;5051252;28;20047;-58
2023/06/13 05:59:43;;;;;;;8.00;1.77;;;;;;;37.15;9.32;100689.50;5051500;28;20609;-57
2023/06/13 06:02:10;;;;;;;4.43;1.70;;;;;;;37.94;8.71;100710.47;5017790;28;20021;-57
2023/06/13 06:04:36;;;;;;;1.75;1.50;;;;;;;38.04;8.79;100702.91;5051550;28;20032;-58
2023/06/13 06:07:02;;;;;;;5.03;1.20;;;;;;;38.49;8.31;100696.50;5051448;28;20029;-60
2023/06/13 06:09:28;;;;;;;2.95;1.35;;;;;;;37.46;9.17;100689.41;5052166;28;20029;-59
2023/06/13 06:11:54;;;;;;;3.05;1.50;;;;;;;38.26;8.62;100693.25;5027853;28;20055;-63
2023/06/13 06:14:20;;;;;;;8.52;1.70;;;;;;;37.80;8.63;100690.72;5028629;28;20045;-57
2023/06/13 06:16:46;;;;;;;5.18;1.58;;;;;;;38.56;8.10;100696.13;5030729;28;20120;-55
2023/06/13 06:19:11;;;;;;;4.05;1.73;;;;;;;38.73;7.96;100667.75;5025193;28;20121;-59
2023/06/13 06:21:37;;;;;;;3.10;1.65;;;;;;;39.11;8.01;100681.13;5014301;28;20042;-60
2023/06/13 06:24:02;;;;;;;3.17;1.60;;;;;;;39.51;7.65;100670.59;5013507;28;20025;-56
2023/06/13 06:26:28;;;;;;;3.50;1.60;;;;;;;39.15;7.77;100679.41;5015612;28;20477;-60
2023/06/13 06:28:53;;;;;;;2.80;1.60;;;;;;;37.90;8.49;100685.06;5018747;28;20099;-65
2023/06/13 06:31:19;;;;;;;3.10;1.45;;;;;;;37.09;9.14;100673.84;5029748;28;20298;-57
2023/06/13 06:33:44;;;;;;;4.35;1.88;;;;;;;37.60;9.26;100665.34;5033485;28;20041;-53
2023/06/13 06:36:10;;;;;;;2.08;1.65;;;;;;;38.28;8.53;100679.84;5028046;28;20469;-60
2023/06/13 06:38:36;;;;;;;3.35;1.80;;;;;;;37.90;8.17;100674.72;5018417;28;20041;-57
2023/06/13 06:41:01;;;;;;;3.80;1.42;;;;;;;37.73;8.56;100697.41;5017546;28;20191;-60
2023/06/13 06:43:27;;;;;;;2.60;1.73;;;;;;;37.47;8.38;100649.19;5032201;28;20040;-61
2023/06/13 06:45:52;;;;;;;4.55;2.17;;;;;;;38.00;8.46;100678.59;5034170;28;20429;-61
2023/06/13 06:48:18;;;;;;;6.38;1.77;;;;;;;38.56;8.37;100668.16;5029568;28;20045;-58
2023/06/13 06:50:43;;;;;;;5.53;2.88;;;;;;;40.01;8.03;100663.78;5017853;28;20045;-54
2023/06/13 06:53:09;;;;;;;3.47;2.38;;;;;;;41.10;7.00;100650.78;5016538;28;20351;-59
2023/06/13 06:55:34;;;;;;;2.85;1.95;;;;;;;41.31;6.78;100652.09;5012490;28;20091;-57
2023/06/13 06:58:00;;;;;;;4.90;2.08;;;;;;;41.66;6.48;100674.16;5014717;28;20042;-59
2023/06/13 07:00:25;;;;;;;6.53;1.83;;;;;;;41.63;6.18;100668.31;5027203;28;20338;-63
2023/06/13 07:02:52;;;;;;;3.17;1.52;;;;;;;41.82;6.42;100649.34;5030753;28;20116;-54
2023/06/13 07:05:17;;;;;;;2.10;1.38;;;;;;;41.78;6.26;100651.13;5031747;28;20407;-57
2023/06/13 07:07:44;;;;;;;6.43;1.60;;;;;;;41.80;6.04;100646.00;5035434;28;20133;-53
2023/06/13 07:10:10;;;;;;;4.10;1.77;;;;;;;42.47;6.16;100666.13;5035167;28;20136;-56
2023/06/13 07:12:38;;;;;;;4.82;1.60;;;;;;;43.16;5.48;100649.94;5054390;28;20029;-54
2023/06/13 07:15:03;;;;;;;3.03;1.60;;;;;;;44.23;4.91;100630.09;5045214;28;20029;-61
2023/06/13 07:17:32;;;;;;;3.22;1.60;;;;;;;44.67;4.76;100632.88;5049200;28;20056;-61
2023/06/13 07:19:57;;;;;;;6.78;1.77;;;;;;;44.52;4.93;100636.22;5050789;28;20334;-62
2023/06/13 07:22:23;;;;;;;3.42;1.90;;;;;;;43.64;5.46;100627.72;5046929;28;20119;-62
2023/06/13 07:24:49;;;;;;;9.60;1.88;;;;;;;43.66;5.41;100625.41;5053655;28;20398;-61
2023/06/13 07:27:17;;;;;;;6.20;1.80;;;;;;;44.86;4.75;100621.16;5052846;28;20067;-63
2023/06/13 07:29:44;;;;;;;2.85;1.85;;;;;;;44.57;4.81;100638.84;5053450;28;20037;-63
2023/06/13 07:32:09;;;;;;;3.28;1.95;;;;;;;43.20;5.09;100625.63;5053988;28;20056;-62
2023/06/13 07:34:35;;;;;;;2.50;1.90;;;;;;;42.13;5.96;100614.88;5053906;28;20480;-65
2023/06/13 07:37:02;;;;;;;8.43;2.10;;;;;;;40.85;6.61;100613.66;5052681;28;20507;-58
2023/06/13 07:39:28;;;;;;;3.13;1.90;;;;;;;41.69;6.32;100622.06;5042073;28;20365;-63
2023/06/13 07:41:53;;;;;;;5.32;2.20;;;;;;;42.87;6.06;100624.00;5052732;28;20032;-62
2023/06/13 07:44:21;;;;;;;6.07;1.92;;;;;;;43.10;5.24;100617.44;5049896;28;20056;-64
2023/06/13 07:46:47;;;;;;;3.03;1.98;;;;;;;41.80;5.81;100623.50;5048300;28;20457;-64
2023/06/13 07:49:14;;;;;;;4.65;1.70;;;;;;;40.54;7.06;100619.81;5035688;28;20449;-64
2023/06/13 07:51:40;;;;;;;2.85;1.77;;;;;;;40.51;6.73;100617.59;5019912;28;20033;-63
2023/06/13 07:54:06;;;;;;;2.33;2.13;;;;;;;40.70;6.47;100628.78;5053798;28;20512;-63
2023/06/13 07:56:32;;;;;;;5.18;1.77;;;;;;;41.57;6.32;100600.94;5050916;28;21493;-64
2023/06/13 07:58:57;;;;;;;2.78;1.85;;;;;;;41.88;6.00;100586.19;5051300;28;20049;-68
2023/06/13 08:01:23;;;;;;;4.13;1.95;;;;;;;41.81;5.87;100619.56;5045746;28;20538;-62
2023/06/13 08:03:48;;;;;;;2.25;1.85;;;;;;;41.39;6.13;100613.16;5053192;28;20048;-63
2023/06/13 08:06:14;;;;;;;3.60;1.85;;;;;;;41.44;6.40;100594.22;5054006;28;20036;-62
2023/06/13 08:08:39;;;;;;;3.10;1.70;;;;;;;41.16;6.30;100611.09;5053004;28;20117;-61
2023/06/13 08:11:05;;;;;;;2.85;1.77;;;;;;;40.62;6.84;100599.44;5052442;28;20057;-62
2023/06/13 08:13:31;;;;;;;7.50;1.98;;;;;;;40.05;7.08;100594.78;5053744;28;20123;-63
2023/06/13 08:15:56;;;;;;;4.40;1.98;;;;;;;38.64;7.76;100580.81;5052580;28;20032;-64
2023/06/13 08:18:22;;;;;;;3.30;1.90;;;;;;;37.97;8.13;100600.94;5051944;28;20064;-65
2023/06/13 08:20:48;;;;;;;2.58;1.80;;;;;;;37.23;8.74;100604.31;5052955;28;20032;-63
2023/06/13 08:23:14;;;;;;;6.00;2.17;;;;;;;35.44;9.77;100578.56;5052094;28;20091;-64
2023/06/13 08:25:41;;;;;;;6.30;1.92;;;;;;;33.22;11.02;100592.16;5052817;28;20442;-65
2023/06/13 08:28:07;;;;;;;6.18;2.00;;;;;;;30.99;12.79;100587.25;5052762;28;20513;-62
2023/06/13 08:30:33;;;;;;;4.15;1.75;;;;;;;29.21;14.32;100576.47;5053046;28;20111;-64
2023/06/13 08:33:02;;;;;;;8.45;1.80;;;;;;;27.42;16.30;100559.94;5052737;28;20060;-65
2023/06/13 08:35:28;;;;;;;6.25;1.85;;;;;;;26.39;17.76;100571.31;5049162;28;20035;-63
2023/06/13 08:37:54;;;;;;;6.97;1.80;;;;;;;25.79;17.92;100563.78;5052416;28;20075;-63
2023/06/13 08:40:20;;;;;;;6.53;2.13;;;;;;;25.27;18.17;100555.97;5052584;28;20060;-65
2023/06/13 08:42:46;;;;;;;6.35;2.03;;;;;;;24.79;18.83;100571.28;5052500;28;20025;-65
2023/06/13 08:45:13;;;;;;;4.05;2.08;;;;;;;24.16;19.39;100563.81;5052238;28;20082;-62
2023/06/13 08:47:40;;;;;;;7.07;2.03;;;;;;;24.05;19.75;100553.38;5050194;28;20149;-62
2023/06/13 08:50:07;;;;;;;5.10;2.00;;;;;;;23.73;20.27;100570.03;5017849;28;20025;-61
2023/06/13 08:52:43;;;;;;;4.00;2.15;;;;;;;23.35;20.48;100543.75;5035304;28;20494;-62
2023/06/13 08:55:16;;;;;;;5.10;1.88;;;;;;;23.26;20.72;100544.03;5051540;28;20105;-61
2023/06/13 08:57:45;;;;;;;8.75;2.08;;;;;;;23.15;21.52;100548.06;5051952;28;20125;-62
2023/06/13 09:00:13;;;;;;;3.20;2.20;;;;;;;23.14;21.25;100560.00;5052508;28;20029;-62
2023/06/13 09:02:45;;;;;;;3.42;2.00;;;;;;;22.94;20.96;100539.59;5051661;28;20037;-63
2023/06/13 09:05:13;;;;;;;4.55;2.40;;;;;;;22.69;21.66;100519.06;5052321;28;20060;-62
2023/06/13 09:07:40;;;;;;;5.57;2.20;;;;;;;22.67;21.76;100541.09;5051786;28;20041;-63
2023/06/13 09:10:10;;;;;;;6.07;2.05;;;;;;;22.64;21.73;100547.78;5052264;28;20054;-64
2023/06/13 09:12:36;;;;;;;2.80;1.88;;;;;;;22.62;21.95;100519.81;5031974;28;20103;-63
2023/06/13 09:15:03;;;;;;;4.38;2.17;;;;;;;22.53;21.76;100534.56;5032017;28;20029;-63
2023/06/13 09:17:30;;;;;;;5.43;2.00;;;;;;;22.39;21.68;100511.63;5031825;28;20124;-63
2023/06/13 09:19:56;;;;;;;5.07;2.30;;;;;;;22.48;21.36;100537.00;5031943;28;20108;-61
2023/06/13 09:22:21;;;;;;;4.85;2.42;;;;;;;22.25;22.30;100513.31;5032226;28;20034;-65
2023/06/13 09:24:48;;;;;;;4.38;2.63;;;;;;;22.23;22.15;100510.78;5032004;28;20037;-61
2023/06/13 09:27:14;;;;;;;6.13;2.63;;;;;;;22.17;22.25;100500.59;5031540;28;20021;-62
2023/06/13 09:29:39;;;;;;;5.90;2.00;;;;;;;22.23;22.33;100518.97;5032203;28;20026;-61
2023/06/13 09:32:08;;;;;;;5.55;2.03;;;;;;;22.32;22.04;100499.78;5031849;28;20040;-63
2023/06/13 09:34:34;;;;;;;3.30;2.13;;;;;;;22.54;21.80;100513.59;5031875;28;20040;-62
2023/06/13 09:36:59;;;;;;;5.70;2.08;;;;;;;22.40;21.72;100518.78;5031549;28;20449;-62
2023/06/13 09:39:25;;;;;;;4.95;2.42;;;;;;;22.13;22.06;100480.16;5031266;28;20026;-62
2023/06/13 09:41:59;;;;;;;3.58;2.28;;;;;;;22.18;22.71;100488.63;5031157;28;20441;-58
2023/06/13 09:44:26;;;;;;;5.95;2.15;;;;;;;22.33;21.92;100502.34;5031428;28;20040;-62
2023/06/13 09:46:53;;;;;;;4.88;2.20;;;;;;;21.98;22.17;100465.66;5032151;28;20358;-62
2023/06/13 09:49:19;;;;;;;5.93;2.05;;;;;;;21.96;22.23;100481.38;5031812;28;20385;-62
2023/06/13 09:51:45;;;;;;;5.93;2.15;;;;;;;22.03;22.38;100468.69;5031496;28;20035;-63
2023/06/13 09:54:12;;;;;;;5.63;2.17;;;;;;;21.93;22.84;100453.41;5031135;28;20088;-63
2023/06/13 09:56:42;;;;;;;5.43;2.28;;;;;;;22.30;22.50;100469.13;5031670;28;20372;-60
2023/06/13 09:59:14;;;;;;;9.27;2.30;;;;;;;22.39;21.67;100468.00;5024958;28;20026;-59
2023/06/13 10:01:41;;;;;;;3.38;2.30;;;;;;;22.28;21.77;100469.28;5011962;28;20045;-60
2023/06/13 10:04:08;;;;;;;6.38;2.63;;;;;;;22.25;22.24;100475.13;5019806;28;20038;-57
2023/06/13 10:06:33;;;;;;;3.53;2.22;;;;;;;22.16;22.33;100452.53;5032031;28;20045;-57
2023/06/13 10:08:59;;;;;;;5.60;2.47;;;;;;;22.10;22.28;100444.25;5036416;28;20034;-55
2023/06/13 10:11:31;;;;;;;8.52;2.55;;;;;;;22.47;21.78;100459.78;5046068;28;20084;-54
2023/06/13 10:13:59;;;;;;;13.25;2.78;;;;;;;22.45;21.91;100460.94;5056170;28;20104;-53
2023/06/13 10:16:26;;;;;;;3.78;2.47;;;;;;;22.12;22.30;100417.66;5055411;28;20040;-53
2023/06/13 10:18:53;;;;;;;9.40;3.03;;;;;;;22.39;22.60;100462.53;5037896;28;20069;-58
2023/06/13 10:21:21;;;;;;;2.80;2.10;;;;;;;22.44;22.31;100449.22;5055544;28;20040;-53
2023/06/13 10:23:49;;;;;;;6.47;2.33;;;;;;;22.57;22.41;100440.41;5055197;28;20445;-54
2023/06/13 10:26:25;;;;;;;6.82;2.47;;;;;;;22.56;21.88;100457.81;5054484;28;20036;-51
2023/06/13 10:28:50;;;;;;;6.75;2.33;;;;;;;22.50;22.13;100448.47;5054714;28;20131;-52
2023/06/13 10:31:46;;;;;;;4.60;2.60;;;;;;;22.50;21.92;100436.69;5055823;28;20428;-53
2023/06/13 10:34:39;;;;;;;2.85;2.40;;;;;;;22.66;22.02;100452.03;5055227;28;20130;-52
2023/06/13 10:37:23;;;;;;;5.55;2.58;;;;;;;22.73;22.02;100436.63;5055634;28;20029;-55
2023/06/13 10:40:26;;;;;;;7.07;2.58;;;;;;;22.78;22.03;100450.53;5055167;28;20036;-59
2023/06/13 10:43:14;;;;;;;4.40;2.65;;;;;;;22.71;22.16;100427.78;5054510;28;20040;-61
2023/06/13 10:45:44;;;;;;;8.05;2.70;;;;;;;22.72;21.77;100445.00;5054523;28;20056;-53
2023/06/13 10:48:10;;;;;;;6.25;2.97;;;;;;;22.48;22.42;100411.50;5055540;28;20037;-58
2023/06/13 10:50:40;;;;;;;6.68;2.70;;;;;;;22.57;22.31;100424.03;5055083;28;20127;-56
2023/06/13 10:53:09;;;;;;;7.55;2.80;;;;;;;22.56;22.61;100429.66;5055000;28;20115;-54
2023/06/13 10:55:38;;;;;;;7.25;2.40;;;;;;;22.55;22.17;100414.31;5052441;28;20029;-56
2023/06/13 10:58:11;;;;;;;7.43;2.88;;;;;;;22.55;22.18;100389.75;5054723;28;20071;-57
2023/06/13 11:00:39;;;;;;;3.80;2.85;;;;;;;22.64;21.94;100405.00;5034803;28;20041;-54
2023/06/13 11:03:10;;;;;;;3.65;2.50;;;;;;;22.67;21.76;100401.91;5020029;28;20124;-54
2023/06/13 11:05:47;;;;;;;2.60;2.22;;;;;;;22.50;22.22;100391.19;5054325;28;20025;-52
2023/06/13 11:08:33;;;;;;;3.70;2.50;;;;;;;22.81;21.95;100430.22;5053341;28;20032;-70
2023/06/13 11:11:01;;;;;;;;;;;;;;;22.99;21.55;100397.03;5051473;28;20044;-62
2023/06/13 11:13:32;;;;;;;4.97;2.75;;;;;;;22.75;21.64;100417.31;5054553;28;20225;-61
2023/06/13 11:16:17;;;;;;;4.90;2.70;;;;;;;22.68;21.70;100395.41;5054540;28;20029;-62
2023/06/13 11:18:50;;;;;;;3.88;2.53;;;;;;;22.49;22.14;100381.31;5053463;28;20024;-64
2023/06/13 11:21:15;;;;;;;4.78;2.50;;;;;;;22.46;21.91;100369.88;5053956;28;20036;-61
2023/06/13 11:23:50;;;;;;;5.80;2.97;;;;;;;22.57;22.05;100387.69;5045067;28;20029;-56
2023/06/13 11:26:19;;;;;;;10.07;2.67;;;;;;;22.29;22.22;100380.97;5054252;28;20029;-60
2023/06/13 11:28:53;;;;;;;3.50;2.63;;;;;;;22.25;22.12;100376.94;5053767;28;20029;-56
2023/06/13 11:31:19;;;;;;;6.38;2.60;;;;;;;22.30;22.17;100376.38;5054542;28;20039;-58